createdAt,value
2024-05-09T00:00:29.640Z,95655.53
2024-05-09T00:01:44.842Z,95652.53
2024-05-09T00:02:57.075Z,95650.31
2024-05-09T00:04:09.513Z,95654.72
2024-05-09T00:05:22.035Z,95645.84
2024-05-09T00:06:34.228Z,95646.91
2024-05-09T00:07:46.405Z,95646.59
2024-05-09T00:08:58.597Z,95641.44
2024-05-09T00:10:18.268Z,95635.25
2024-05-09T00:11:37.744Z,95635.75
2024-05-09T00:12:50.023Z,95636.25
2024-05-09T00:14:02.655Z,95642.69
2024-05-09T00:15:14.944Z,95638.66
2024-05-09T00:16:27.079Z,95639.66
2024-05-09T00:17:39.470Z,95636.97
2024-05-09T00:18:51.987Z,95637.50
2024-05-09T00:20:10.931Z,95643.78
2024-05-09T00:21:26.139Z,95635.53
2024-05-09T00:22:38.291Z,95639.97
2024-05-09T00:23:50.445Z,95633.88
2024-05-09T00:25:02.695Z,95629.66
2024-05-09T00:26:18.487Z,95634.94
2024-05-09T00:27:30.706Z,95630.50
2024-05-09T00:28:42.928Z,95627.31
2024-05-09T00:29:55.106Z,95626.91
2024-05-09T00:31:07.266Z,95624.81
2024-05-09T00:32:19.603Z,95626.47
2024-05-09T00:33:32.068Z,95631.44
2024-05-09T00:34:44.418Z,95631.38
2024-05-09T00:35:56.606Z,95629.78
2024-05-09T00:37:08.793Z,95632.66
2024-05-09T00:38:21.149Z,95627.22
2024-05-09T00:39:33.402Z,95632.25
2024-05-09T00:40:45.639Z,95639.53
2024-05-09T00:41:57.833Z,95630.00
2024-05-09T00:43:14.583Z,95635.28
2024-05-09T00:44:27.604Z,95633.72
2024-05-09T00:45:39.902Z,95630.44
2024-05-09T00:46:55.402Z,95633.63
2024-05-09T00:48:09.531Z,95629.09
2024-05-09T00:49:24.124Z,95633.84
2024-05-09T00:50:41.101Z,95631.75
2024-05-09T00:51:56.332Z,95636.53
2024-05-09T00:53:11.805Z,95644.06
2024-05-09T00:54:24.765Z,95635.25
2024-05-09T00:55:38.115Z,95639.69
2024-05-09T00:56:52.465Z,95638.25
2024-05-09T00:58:05.591Z,95635.66
2024-05-09T00:59:17.933Z,95633.22
2024-05-09T01:00:35.904Z,95633.09
2024-05-09T01:01:52.074Z,95635.78
2024-05-09T01:03:04.697Z,95629.53
2024-05-09T01:04:17.481Z,95629.78
2024-05-09T01:05:30.126Z,95621.72
2024-05-09T01:06:42.496Z,95621.28
2024-05-09T01:07:54.818Z,95619.63
2024-05-09T01:09:07.093Z,95619.00
2024-05-09T01:10:27.577Z,95615.78
2024-05-09T01:11:44.469Z,95620.03
2024-05-09T01:12:56.743Z,95625.72
2024-05-09T01:14:08.929Z,95617.53
2024-05-09T01:15:21.132Z,95626.06
2024-05-09T01:16:35.608Z,95618.75
2024-05-09T01:17:48.108Z,95618.25
2024-05-09T01:19:03.480Z,95624.88
2024-05-09T01:20:20.297Z,95619.25
2024-05-09T01:21:41.759Z,95620.16
2024-05-09T01:22:54.874Z,95620.88
2024-05-09T01:24:07.153Z,95619.84
2024-05-09T01:25:19.291Z,95620.16
2024-05-09T01:26:32.536Z,95621.72
2024-05-09T01:27:45.063Z,95613.34
2024-05-09T01:28:57.268Z,95608.72
2024-05-09T01:30:14.925Z,95612.63
2024-05-09T01:31:32.987Z,95611.41
2024-05-09T01:32:45.338Z,95619.44
2024-05-09T01:33:57.744Z,95612.34
2024-05-09T01:35:10.078Z,95616.31
2024-05-09T01:36:22.259Z,95615.09
2024-05-09T01:37:34.429Z,95615.50
2024-05-09T01:38:46.693Z,95613.00
2024-05-09T01:39:58.954Z,95619.44
2024-05-09T01:41:11.231Z,95607.25
2024-05-09T01:42:23.493Z,95606.16
2024-05-09T01:43:35.654Z,95599.44
2024-05-09T01:44:47.785Z,95603.75
2024-05-09T01:45:59.986Z,95602.22
2024-05-09T01:47:12.219Z,95598.22
2024-05-09T01:48:24.659Z,95599.53
2024-05-09T01:49:37.796Z,95593.88
2024-05-09T01:50:50.065Z,95593.66
2024-05-09T01:52:02.257Z,95590.84
2024-05-09T01:53:15.433Z,95596.78
2024-05-09T01:54:27.940Z,95592.81
2024-05-09T01:55:40.667Z,95597.31
2024-05-09T01:56:52.918Z,95595.34
2024-05-09T01:58:05.292Z,95597.84
2024-05-09T01:59:17.525Z,95595.38
2024-05-09T02:00:38.631Z,95587.59
2024-05-09T02:01:56.981Z,95591.59
2024-05-09T02:03:14.689Z,95588.09
2024-05-09T02:04:30.616Z,95596.53
2024-05-09T02:05:43.780Z,95588.81
2024-05-09T02:06:56.090Z,95590.03
2024-05-09T02:08:12.877Z,95582.09
2024-05-09T02:09:25.888Z,95586.34
2024-05-09T02:10:38.090Z,95580.44
2024-05-09T02:11:50.671Z,95574.38
2024-05-09T02:13:02.890Z,95573.31
2024-05-09T02:14:15.112Z,95585.34
2024-05-09T02:15:27.364Z,95581.06
2024-05-09T02:16:39.692Z,95576.75
2024-05-09T02:17:54.593Z,95583.59
2024-05-09T02:19:07.026Z,95584.63
2024-05-09T02:20:30.139Z,95582.16
2024-05-09T02:21:47.921Z,95589.28
2024-05-09T02:23:03.634Z,95580.59
2024-05-09T02:24:16.121Z,95579.97
2024-05-09T02:25:28.294Z,95585.44
2024-05-09T02:26:40.509Z,95579.38
2024-05-09T02:27:52.684Z,95567.94
2024-05-09T02:29:04.926Z,95577.22
2024-05-09T02:30:25.843Z,95577.25
2024-05-09T02:31:47.679Z,95578.25
2024-05-09T02:33:00.430Z,95578.75
2024-05-09T02:34:12.834Z,95583.94
2024-05-09T02:35:25.187Z,95588.84
2024-05-09T02:36:37.394Z,95582.50
2024-05-09T02:37:49.576Z,95589.75
2024-05-09T02:39:01.917Z,95581.81
2024-05-09T02:40:15.150Z,95586.59
2024-05-09T02:41:33.648Z,95575.53
2024-05-09T02:42:45.988Z,95582.81
2024-05-09T02:43:58.171Z,95576.81
2024-05-09T02:45:10.439Z,95580.09
2024-05-09T02:46:22.619Z,95581.38
2024-05-09T02:47:34.911Z,95577.25
2024-05-09T02:48:47.333Z,95577.63
2024-05-09T02:49:59.659Z,95582.09
2024-05-09T02:51:11.952Z,95576.19
2024-05-09T02:52:24.192Z,95580.00
2024-05-09T02:53:36.431Z,95577.06
2024-05-09T02:54:48.663Z,95583.56
2024-05-09T02:56:00.940Z,95582.81
2024-05-09T02:57:13.232Z,95588.59
2024-05-09T02:58:25.419Z,95585.09
2024-05-09T02:59:37.648Z,95585.59
2024-05-09T03:00:49.979Z,95582.31
2024-05-09T03:02:02.317Z,95591.59
2024-05-09T03:03:15.770Z,95584.78
2024-05-09T03:04:28.302Z,95583.16
2024-05-09T03:05:40.868Z,95592.38
2024-05-09T03:06:53.311Z,95591.56
2024-05-09T03:08:05.947Z,95582.16
2024-05-09T03:09:18.570Z,95593.53
2024-05-09T03:10:35.943Z,95585.78
2024-05-09T03:11:50.274Z,95584.22
2024-05-09T03:13:15.279Z,95593.78
2024-05-09T03:14:29.171Z,95585.44
2024-05-09T03:15:41.376Z,95591.44
2024-05-09T03:16:53.558Z,95584.16
2024-05-09T03:18:06.907Z,95587.94
2024-05-09T03:19:19.568Z,95585.72
2024-05-09T03:20:34.911Z,95587.53
2024-05-09T03:21:48.308Z,95597.03
2024-05-09T03:23:00.508Z,95588.47
2024-05-09T03:24:12.680Z,95593.53
2024-05-09T03:25:25.099Z,95592.78
2024-05-09T03:26:37.282Z,95602.69
2024-05-09T03:27:49.514Z,95600.75
2024-05-09T03:29:01.726Z,95604.38
2024-05-09T03:30:26.018Z,95592.91
2024-05-09T03:31:46.242Z,95603.13
2024-05-09T03:32:58.597Z,95609.09
2024-05-09T03:34:11.802Z,95605.31
2024-05-09T03:35:24.182Z,95606.53
2024-05-09T03:36:36.492Z,95609.84
2024-05-09T03:37:48.663Z,95615.28
2024-05-09T03:39:00.877Z,95609.75
2024-05-09T03:40:20.704Z,95616.13
2024-05-09T03:41:36.166Z,95616.13
2024-05-09T03:42:48.392Z,95620.97
2024-05-09T03:44:00.624Z,95614.47
2024-05-09T03:45:12.880Z,95617.66
2024-05-09T03:46:25.133Z,95618.97
2024-05-09T03:47:38.458Z,95618.16
2024-05-09T03:48:50.925Z,95613.22
2024-05-09T03:50:05.636Z,95618.25
2024-05-09T03:51:17.928Z,95617.41
2024-05-09T03:52:30.066Z,95621.97
2024-05-09T03:53:42.307Z,95624.56
2024-05-09T03:54:54.669Z,95621.94
2024-05-09T03:56:08.712Z,95622.78
2024-05-09T03:57:20.901Z,95622.94
2024-05-09T03:58:33.129Z,95611.00
2024-05-09T03:59:45.304Z,95620.44
2024-05-09T04:00:57.525Z,95612.97
2024-05-09T04:02:09.880Z,95617.88
2024-05-09T04:03:22.317Z,95621.38
2024-05-09T04:04:34.845Z,95610.59
2024-05-09T04:05:47.183Z,95622.38
2024-05-09T04:06:59.361Z,95625.78
2024-05-09T04:08:11.776Z,95626.84
2024-05-09T04:09:24.049Z,95631.00
2024-05-09T04:10:36.261Z,95624.78
2024-05-09T04:11:48.536Z,95625.84
2024-05-09T04:13:00.844Z,95626.56
2024-05-09T04:14:13.063Z,95630.81
2024-05-09T04:15:25.272Z,95630.28
2024-05-09T04:16:37.469Z,95636.19
2024-05-09T04:17:51.760Z,95633.84
2024-05-09T04:19:04.111Z,95635.47
2024-05-09T04:20:28.671Z,95627.38
2024-05-09T04:21:48.508Z,95632.56
2024-05-09T04:23:00.745Z,95640.63
2024-05-09T04:24:12.915Z,95640.44
2024-05-09T04:25:25.090Z,95635.34
2024-05-09T04:26:37.279Z,95637.38
2024-05-09T04:27:49.499Z,95646.34
2024-05-09T04:29:01.820Z,95632.88
2024-05-09T04:30:21.636Z,95642.06
2024-05-09T04:31:42.503Z,95642.13
2024-05-09T04:32:54.905Z,95636.28
2024-05-09T04:34:07.342Z,95634.25
2024-05-09T04:35:22.413Z,95639.38
2024-05-09T04:36:34.625Z,95637.09
2024-05-09T04:37:46.798Z,95635.84
2024-05-09T04:38:58.970Z,95636.84
2024-05-09T04:40:20.935Z,95635.94
2024-05-09T04:41:40.400Z,95641.25
2024-05-09T04:42:52.644Z,95639.00
2024-05-09T04:44:05.065Z,95638.13
2024-05-09T04:45:17.287Z,95638.06
2024-05-09T04:46:29.451Z,95629.19
2024-05-09T04:47:41.807Z,95634.75
2024-05-09T04:48:54.297Z,95636.66
2024-05-09T04:50:11.418Z,95629.78
2024-05-09T04:51:23.913Z,95647.31
2024-05-09T04:52:36.094Z,95646.25
2024-05-09T04:53:48.300Z,95637.38
2024-05-09T04:55:00.560Z,95639.53
2024-05-09T04:56:12.783Z,95632.31
2024-05-09T04:57:24.957Z,95631.88
2024-05-09T04:58:38.052Z,95641.41
2024-05-09T04:59:50.697Z,95636.13
2024-05-09T05:01:02.884Z,95640.03
2024-05-09T05:02:15.158Z,95639.69
2024-05-09T05:03:27.522Z,95646.25
2024-05-09T05:04:39.915Z,95644.81
2024-05-09T05:05:52.164Z,95641.84
2024-05-09T05:07:04.426Z,95638.78
2024-05-09T05:08:19.210Z,95648.06
2024-05-09T05:09:31.895Z,95639.75
2024-05-09T05:10:44.660Z,95647.41
2024-05-09T05:11:56.985Z,95637.72
2024-05-09T05:13:17.144Z,95640.25
2024-05-09T05:14:30.389Z,95642.22
2024-05-09T05:15:44.252Z,95650.44
2024-05-09T05:16:56.463Z,95643.03
2024-05-09T05:18:08.819Z,95656.13
2024-05-09T05:19:21.096Z,95647.34
2024-05-09T05:20:34.235Z,95642.78
2024-05-09T05:21:46.646Z,95648.00
2024-05-09T05:22:58.857Z,95647.97
2024-05-09T05:24:11.005Z,95649.53
2024-05-09T05:25:23.145Z,95642.16
2024-05-09T05:26:35.452Z,95648.25
2024-05-09T05:27:47.700Z,95643.50
2024-05-09T05:29:00.012Z,95646.28
2024-05-09T05:30:20.995Z,95645.13
2024-05-09T05:31:37.543Z,95638.53
2024-05-09T05:32:49.994Z,95640.88
2024-05-09T05:34:02.491Z,95641.63
2024-05-09T05:35:14.876Z,95642.75
2024-05-09T05:36:27.123Z,95641.25
2024-05-09T05:37:39.307Z,95639.25
2024-05-09T05:38:51.773Z,95641.59
2024-05-09T05:40:04.350Z,95643.34
2024-05-09T05:41:17.833Z,95638.63
2024-05-09T05:42:29.999Z,95645.34
2024-05-09T05:43:42.219Z,95632.91
2024-05-09T05:44:54.410Z,95638.03
2024-05-09T05:46:06.566Z,95637.00
2024-05-09T05:47:18.754Z,95637.56
2024-05-09T05:48:31.096Z,95635.41
2024-05-09T05:49:43.309Z,95633.19
2024-05-09T05:50:55.509Z,95632.97
2024-05-09T05:52:07.767Z,95636.88
2024-05-09T05:53:20.082Z,95635.72
2024-05-09T05:54:32.346Z,95636.47
2024-05-09T05:55:44.646Z,95626.78
2024-05-09T05:56:58.013Z,95637.09
2024-05-09T05:58:10.944Z,95630.25
2024-05-09T05:59:24.160Z,95633.34
2024-05-09T06:00:39.201Z,95628.41
2024-05-09T06:01:52.781Z,95624.34
2024-05-09T06:03:06.124Z,95623.88
2024-05-09T06:04:18.588Z,95627.81
2024-05-09T06:05:30.953Z,95625.84
2024-05-09T06:06:43.152Z,95623.03
2024-05-09T06:07:55.345Z,95625.56
2024-05-09T06:09:07.579Z,95620.66
2024-05-09T06:10:25.440Z,95633.69
2024-05-09T06:11:42.871Z,95631.00
2024-05-09T06:12:55.115Z,95630.28
2024-05-09T06:14:07.404Z,95632.63
2024-05-09T06:15:19.601Z,95633.03
2024-05-09T06:16:31.935Z,95624.97
2024-05-09T06:17:44.617Z,95625.03
2024-05-09T06:18:57.226Z,95623.53
2024-05-09T06:20:16.742Z,95624.81
2024-05-09T06:21:35.806Z,95622.91
2024-05-09T06:22:48.159Z,95622.56
2024-05-09T06:24:02.524Z,95619.28
2024-05-09T06:25:15.991Z,95617.53
2024-05-09T06:26:28.664Z,95616.19
2024-05-09T06:27:40.904Z,95608.72
2024-05-09T06:28:53.105Z,95618.44
2024-05-09T06:30:08.195Z,95607.09
2024-05-09T06:31:22.023Z,95606.34
2024-05-09T06:32:34.310Z,95615.34
2024-05-09T06:33:46.691Z,95601.34
2024-05-09T06:34:59.242Z,95607.50
2024-05-09T06:36:11.475Z,95613.56
2024-05-09T06:37:23.643Z,95608.28
2024-05-09T06:38:38.123Z,95607.81
2024-05-09T06:39:50.462Z,95607.09
2024-05-09T06:41:02.674Z,95608.09
2024-05-09T06:42:15.048Z,95610.44
2024-05-09T06:43:27.242Z,95601.19
2024-05-09T06:44:39.528Z,95601.78
2024-05-09T06:45:53.124Z,95598.75
2024-05-09T06:47:05.526Z,95605.59
2024-05-09T06:48:22.510Z,95601.13
2024-05-09T06:49:35.241Z,95597.44
2024-05-09T06:50:48.335Z,95597.16
2024-05-09T06:52:00.610Z,95592.09
2024-05-09T06:53:16.284Z,95593.19
2024-05-09T06:54:28.557Z,95594.75
2024-05-09T06:55:40.821Z,95596.03
2024-05-09T06:56:53.048Z,95604.09
2024-05-09T06:58:11.609Z,95601.63
2024-05-09T06:59:23.826Z,95604.22
2024-05-09T07:00:39.781Z,95593.19
2024-05-09T07:01:53.661Z,95591.91
2024-05-09T07:03:11.198Z,95603.59
2024-05-09T07:04:24.491Z,95594.28
2024-05-09T07:05:36.792Z,95584.19
2024-05-09T07:06:48.977Z,95588.91
2024-05-09T07:08:01.312Z,95594.91
2024-05-09T07:09:13.501Z,95587.94
2024-05-09T07:10:32.631Z,95587.69
2024-05-09T07:11:47.197Z,95583.41
2024-05-09T07:12:59.690Z,95577.09
2024-05-09T07:14:11.961Z,95582.38
2024-05-09T07:15:24.125Z,95584.03
2024-05-09T07:16:36.302Z,95579.72
2024-05-09T07:17:48.667Z,95577.94
2024-05-09T07:19:01.182Z,95575.06
2024-05-09T07:20:23.014Z,95577.91
2024-05-09T07:21:40.027Z,95571.91
2024-05-09T07:22:52.227Z,95570.56
2024-05-09T07:24:04.715Z,95566.75
2024-05-09T07:25:16.883Z,95568.75
2024-05-09T07:26:29.124Z,95578.47
2024-05-09T07:27:41.304Z,95562.31
2024-05-09T07:28:53.505Z,95568.44
2024-05-09T07:30:07.339Z,95569.50
2024-05-09T07:31:19.588Z,95560.69
2024-05-09T07:32:31.894Z,95555.66
2024-05-09T07:33:44.246Z,95569.13
2024-05-09T07:34:56.471Z,95562.88
2024-05-09T07:36:08.709Z,95556.75
2024-05-09T07:37:20.843Z,95556.34
2024-05-09T07:38:33.073Z,95556.34
2024-05-09T07:39:45.301Z,95558.59
2024-05-09T07:40:57.591Z,95563.00
2024-05-09T07:42:10.684Z,95563.44
2024-05-09T07:43:22.816Z,95557.47
2024-05-09T07:44:35.049Z,95560.66
2024-05-09T07:45:52.779Z,95557.81
2024-05-09T07:48:14.543Z,95551.31
2024-05-09T07:53:49.306Z,95545.50
2024-05-09T07:55:04.825Z,95545.06
2024-05-09T07:56:17.749Z,95539.75
2024-05-09T07:57:30.494Z,95546.25
2024-05-09T07:58:46.264Z,95543.06
2024-05-09T07:59:58.403Z,95553.28
2024-05-09T08:01:10.804Z,95550.59
2024-05-09T08:02:23.264Z,95556.13
2024-05-09T08:03:35.692Z,95548.91
2024-05-09T08:04:48.204Z,95543.69
2024-05-09T08:06:00.539Z,95543.41
2024-05-09T08:07:12.730Z,95546.28
2024-05-09T08:08:24.970Z,95546.81
2024-05-09T08:09:38.676Z,95543.38
2024-05-09T08:10:51.550Z,95541.97
2024-05-09T08:12:03.818Z,95543.59
2024-05-09T08:13:16.079Z,95544.31
2024-05-09T08:14:28.393Z,95540.97
2024-05-09T08:15:40.680Z,95536.28
2024-05-09T08:16:52.974Z,95542.13
2024-05-09T08:18:09.209Z,95533.78
2024-05-09T08:19:21.544Z,95542.41
2024-05-09T08:20:35.355Z,95541.19
2024-05-09T08:21:47.816Z,95537.66
2024-05-09T08:23:00.011Z,95541.75
2024-05-09T08:24:12.172Z,95529.16
2024-05-09T08:25:24.397Z,95530.00
2024-05-09T08:26:36.642Z,95526.66
2024-05-09T08:27:48.891Z,95526.06
2024-05-09T08:29:01.088Z,95523.25
2024-05-09T08:30:21.733Z,95523.41
2024-05-09T08:31:41.409Z,95525.50
2024-05-09T08:32:53.711Z,95526.22
2024-05-09T08:34:07.141Z,95527.34
2024-05-09T08:35:19.397Z,95522.75
2024-05-09T08:36:31.617Z,95518.31
2024-05-09T08:37:43.962Z,95517.31
2024-05-09T08:38:57.093Z,95510.31
2024-05-09T08:40:16.956Z,95519.88
2024-05-09T08:41:39.240Z,95507.22
2024-05-09T08:42:56.190Z,95504.81
2024-05-09T08:44:08.646Z,95508.22
2024-05-09T08:45:21.238Z,95509.50
2024-05-09T08:46:34.455Z,95502.91
2024-05-09T08:47:47.175Z,95496.94
2024-05-09T08:49:01.148Z,95496.53
2024-05-09T08:50:28.492Z,95500.81
2024-05-09T08:51:47.138Z,95492.69
2024-05-09T08:52:59.385Z,95491.38
2024-05-09T08:54:11.548Z,95494.09
2024-05-09T08:55:25.539Z,95488.69
2024-05-09T08:56:42.391Z,95496.94
2024-05-09T08:57:55.207Z,95492.41
2024-05-09T08:59:09.945Z,95488.53
2024-05-09T09:00:33.386Z,95484.66
2024-05-09T09:18:46.294Z,95459.78
2024-05-09T09:20:00.976Z,95459.44
2024-05-09T09:21:13.223Z,95459.00
2024-05-09T09:22:25.390Z,95454.63
2024-05-09T09:23:37.604Z,95457.69
2024-05-09T09:24:49.765Z,95456.28
2024-05-09T09:26:02.139Z,95458.03
2024-05-09T09:27:14.819Z,95456.41
2024-05-09T09:28:26.980Z,95456.06
2024-05-09T09:29:40.386Z,95455.34
2024-05-09T09:30:52.669Z,95454.63
2024-05-09T09:32:05.702Z,95451.78
2024-05-09T09:33:18.258Z,95446.63
2024-05-09T09:34:31.954Z,95448.63
2024-05-09T09:35:44.281Z,95448.63
2024-05-09T09:36:59.190Z,95441.91
2024-05-09T09:38:14.702Z,95440.47
2024-05-09T09:39:30.911Z,95444.19
2024-05-09T09:40:49.745Z,95435.78
2024-05-09T09:42:03.858Z,95430.78
2024-05-09T09:43:19.908Z,95446.91
2024-05-09T09:44:34.173Z,95430.88
2024-05-09T09:45:49.311Z,95441.28
2024-05-09T09:47:03.066Z,95423.81
2024-05-09T09:48:15.920Z,95426.41
2024-05-09T09:49:30.592Z,95427.03
2024-05-09T09:50:43.047Z,95425.03
2024-05-09T09:51:55.494Z,95421.66
2024-05-09T09:53:08.278Z,95427.66
2024-05-09T09:54:21.829Z,95426.97
2024-05-09T09:55:35.271Z,95428.41
2024-05-09T09:56:48.824Z,95426.53
2024-05-09T09:58:01.593Z,95422.97
2024-05-09T09:59:15.095Z,95423.06
2024-05-09T10:00:33.013Z,95420.72
2024-05-09T10:01:47.108Z,95425.03
2024-05-09T10:02:59.424Z,95419.50
2024-05-09T10:04:27.522Z,95423.94
2024-05-09T10:05:43.255Z,95423.66
2024-05-09T10:07:01.242Z,95416.50
2024-05-09T10:08:14.380Z,95423.53
2024-05-09T10:09:26.876Z,95424.78
2024-05-09T10:10:39.329Z,95416.81
2024-05-09T10:11:59.667Z,95418.75
2024-05-09T10:13:12.742Z,95417.13
2024-05-09T10:14:25.087Z,95410.44
2024-05-09T10:15:45.810Z,95405.41
2024-05-09T10:17:05.680Z,95398.47
2024-05-09T10:18:22.791Z,95405.75
2024-05-09T10:19:35.557Z,95409.19
2024-05-09T10:20:49.468Z,95401.81
2024-05-09T10:22:06.007Z,95403.41
2024-05-09T10:23:29.028Z,95404.44
2024-05-09T10:24:50.971Z,95397.72
2024-05-09T10:26:05.660Z,95399.38
2024-05-09T10:27:28.205Z,95403.41
2024-05-09T10:28:46.259Z,95393.91
2024-05-09T10:30:00.528Z,95401.63
2024-05-09T10:31:15.598Z,95399.75
2024-05-09T10:32:29.375Z,95398.69
2024-05-09T10:33:50.681Z,95391.78
2024-05-09T10:35:06.968Z,95393.66
2024-05-09T10:36:23.266Z,95391.16
2024-05-09T10:37:36.027Z,95385.41
2024-05-09T10:38:52.245Z,95396.72
2024-05-09T10:40:11.918Z,95384.78
2024-05-09T10:41:29.377Z,95382.59
2024-05-09T10:42:42.041Z,95391.84
2024-05-09T10:43:54.278Z,95393.41
2024-05-09T10:45:06.958Z,95385.56
2024-05-09T10:46:19.946Z,95385.16
2024-05-09T10:47:32.720Z,95385.22
2024-05-09T10:48:45.548Z,95389.16
2024-05-09T10:49:57.933Z,95385.16
2024-05-09T10:51:10.163Z,95388.84
2024-05-09T10:52:22.994Z,95387.66
2024-05-09T10:53:42.643Z,95380.66
2024-05-09T10:54:55.364Z,95384.97
2024-05-09T10:56:07.818Z,95384.31
2024-05-09T10:57:20.777Z,95383.44
2024-05-09T10:58:32.955Z,95378.72
2024-05-09T10:59:45.802Z,95381.41
2024-05-09T11:00:59.107Z,95380.38
2024-05-09T11:02:12.340Z,95378.84
2024-05-09T11:03:25.929Z,95371.72
2024-05-09T11:04:41.772Z,95374.75
2024-05-09T11:05:54.400Z,95373.94
2024-05-09T11:07:17.677Z,95373.91
2024-05-09T11:08:32.735Z,95371.03
2024-05-09T11:09:45.905Z,95373.31
2024-05-09T11:10:59.834Z,95364.81
2024-05-09T11:12:12.469Z,95372.16
2024-05-09T11:13:35.125Z,95368.91
2024-05-09T11:14:54.301Z,95372.25
2024-05-09T11:16:17.137Z,95372.56
2024-05-09T11:17:37.660Z,95376.78
2024-05-09T11:18:59.543Z,95379.84
2024-05-09T11:20:17.107Z,95374.66
2024-05-09T11:21:35.503Z,95377.09
2024-05-09T11:22:47.731Z,95379.25
2024-05-09T11:23:59.894Z,95385.63
2024-05-09T11:25:12.145Z,95386.47
2024-05-09T11:26:25.487Z,95387.78
2024-05-09T11:27:40.989Z,95385.19
2024-05-09T11:28:53.210Z,95391.47
2024-05-09T11:30:09.114Z,95391.13
2024-05-09T11:31:23.846Z,95394.72
2024-05-09T11:32:38.202Z,95394.44
2024-05-09T11:33:50.669Z,95392.00
2024-05-09T11:35:02.974Z,95394.28
2024-05-09T11:36:15.745Z,95387.03
2024-05-09T11:37:28.072Z,95389.88
2024-05-09T11:38:40.735Z,95386.47
2024-05-09T11:39:54.055Z,95385.47
2024-05-09T11:41:06.791Z,95386.91
2024-05-09T11:42:20.825Z,95381.59
2024-05-09T11:43:33.558Z,95387.03
2024-05-09T11:44:45.861Z,95389.28
2024-05-09T11:45:58.697Z,95380.88
2024-05-09T11:47:11.182Z,95392.81
2024-05-09T11:48:23.963Z,95386.09
2024-05-09T11:49:36.359Z,95398.72
2024-05-09T11:50:48.547Z,95396.06
2024-05-09T11:52:00.884Z,95399.91
2024-05-09T11:53:13.162Z,95393.34
2024-05-09T11:54:25.319Z,95403.75
2024-05-09T11:55:38.231Z,95403.47
2024-05-09T11:56:51.786Z,95404.44
2024-05-09T11:58:04.653Z,95412.75
2024-05-09T11:59:16.876Z,95413.00
2024-05-09T12:00:36.195Z,95414.06
2024-05-09T12:01:49.769Z,95419.94
2024-05-09T12:03:04.931Z,95417.44
2024-05-09T12:04:18.125Z,95421.72
2024-05-09T12:05:30.589Z,95425.56
2024-05-09T12:06:43.027Z,95429.28
2024-05-09T12:07:56.461Z,95431.72
2024-05-09T12:09:08.997Z,95425.72
2024-05-09T12:10:26.073Z,95419.28
2024-05-09T12:11:44.443Z,95434.28
2024-05-09T12:12:56.668Z,95428.84
2024-05-09T12:14:08.864Z,95435.84
2024-05-09T12:15:21.074Z,95433.00
2024-05-09T12:16:33.429Z,95437.53
2024-05-09T12:17:47.783Z,95440.09
2024-05-09T12:19:01.968Z,95432.84
2024-05-09T12:20:21.484Z,95431.97
2024-05-09T12:21:40.872Z,95436.03
2024-05-09T12:22:53.056Z,95440.78
2024-05-09T12:24:05.259Z,95422.75
2024-05-09T12:25:17.646Z,95448.28
2024-05-09T12:26:29.894Z,95439.69
2024-05-09T12:27:42.128Z,95449.38
2024-05-09T12:28:54.474Z,95447.81
2024-05-09T12:30:11.262Z,95446.47
2024-05-09T12:31:23.714Z,95455.34
2024-05-09T12:32:35.945Z,95464.88
2024-05-09T12:33:48.283Z,95465.69
2024-05-09T12:35:00.564Z,95467.19
2024-05-09T12:36:12.721Z,95469.59
2024-05-09T12:37:25.008Z,95479.75
2024-05-09T12:38:37.199Z,95480.59
2024-05-09T12:39:49.659Z,95480.78
2024-05-09T12:41:02.014Z,95483.84
2024-05-09T12:42:26.042Z,95481.63
2024-05-09T12:43:39.732Z,95483.44
2024-05-09T12:44:51.888Z,95471.84
2024-05-09T12:46:04.227Z,95492.84
2024-05-09T12:47:16.683Z,95509.53
2024-05-09T12:48:29.234Z,95507.38
2024-05-09T12:49:41.634Z,95513.50
2024-05-09T12:50:55.091Z,95512.25
2024-05-09T12:52:07.580Z,95517.41
2024-05-09T12:53:19.814Z,95521.13
2024-05-09T12:54:33.682Z,95531.75
2024-05-09T12:55:53.564Z,95527.72
2024-05-09T12:57:09.398Z,95541.50
2024-05-09T12:58:24.907Z,95554.03
2024-05-09T12:59:37.148Z,95543.22
2024-05-09T13:00:49.566Z,95557.25
2024-05-09T13:02:02.001Z,95553.06
2024-05-09T13:03:14.436Z,95557.19
2024-05-09T13:04:27.010Z,95547.47
2024-05-09T13:05:41.513Z,95553.03
2024-05-09T13:06:54.071Z,95555.97
2024-05-09T13:08:07.724Z,95560.59
2024-05-09T13:09:19.890Z,95558.97
2024-05-09T13:10:33.418Z,95562.44
2024-05-09T13:11:45.893Z,95574.09
2024-05-09T13:12:58.154Z,95584.03
2024-05-09T13:14:10.429Z,95574.34
2024-05-09T13:15:22.574Z,95588.19
2024-05-09T13:16:34.952Z,95587.44
2024-05-09T13:17:47.385Z,95589.69
2024-05-09T13:18:59.588Z,95592.22
2024-05-09T13:20:18.943Z,95595.53
2024-05-09T13:21:38.422Z,95587.28
2024-05-09T13:22:50.610Z,95597.59
2024-05-09T13:24:02.730Z,95600.41
2024-05-09T13:25:15.380Z,95595.97
2024-05-09T13:26:27.610Z,95593.31
2024-05-09T13:27:39.803Z,95591.50
2024-05-09T13:28:51.988Z,95597.34
2024-05-09T13:30:06.315Z,95600.06
2024-05-09T13:31:20.031Z,95603.72
2024-05-09T13:32:32.520Z,95603.66
2024-05-09T13:33:45.078Z,95603.34
2024-05-09T13:34:57.575Z,95605.09
2024-05-09T13:36:09.843Z,95596.88
2024-05-09T13:37:21.981Z,95605.50
2024-05-09T13:38:34.126Z,95602.78
2024-05-09T13:39:46.379Z,95600.63
2024-05-09T13:40:58.666Z,95601.03
2024-05-09T13:42:10.838Z,95593.19
2024-05-09T13:43:23.350Z,95598.28
2024-05-09T13:44:35.602Z,95604.31
2024-05-09T13:45:48.170Z,95591.53
2024-05-09T13:47:00.461Z,95592.84
2024-05-09T13:48:13.089Z,95599.09
2024-05-09T13:49:25.640Z,95586.00
2024-05-09T13:50:38.000Z,95595.53
2024-05-09T13:51:50.183Z,95605.09
2024-05-09T13:53:02.632Z,95598.22
2024-05-09T13:54:15.705Z,95605.19
2024-05-09T13:55:28.996Z,95602.25
2024-05-09T13:56:41.862Z,95601.63
2024-05-09T13:57:54.285Z,95603.75
2024-05-09T13:59:06.686Z,95593.78
2024-05-09T14:00:31.705Z,95599.25
2024-05-09T14:01:51.035Z,95589.22
2024-05-09T14:03:03.314Z,95605.09
2024-05-09T14:04:16.068Z,95595.47
2024-05-09T14:05:28.394Z,95597.78
2024-05-09T14:06:42.096Z,95594.41
2024-05-09T14:07:54.284Z,95595.53
2024-05-09T14:09:06.521Z,95589.69
2024-05-09T14:10:23.435Z,95589.13
2024-05-09T14:11:41.082Z,95592.16
2024-05-09T14:12:53.298Z,95590.56
2024-05-09T14:14:05.643Z,95594.91
2024-05-09T14:15:17.816Z,95595.81
2024-05-09T14:16:33.645Z,95589.66
2024-05-09T14:17:46.768Z,95592.31
2024-05-09T14:18:59.493Z,95599.44
2024-05-09T14:20:14.198Z,95599.94
2024-05-09T14:21:28.954Z,95595.66
2024-05-09T14:22:41.288Z,95594.28
2024-05-09T14:23:54.475Z,95589.59
2024-05-09T14:25:07.519Z,95588.16
2024-05-09T14:26:19.755Z,95578.13
2024-05-09T14:27:32.511Z,95582.50
2024-05-09T14:28:44.711Z,95581.59
2024-05-09T14:29:56.834Z,95574.78
2024-05-09T14:31:09.033Z,95578.41
2024-05-09T14:32:21.285Z,95579.28
2024-05-09T14:33:33.714Z,95578.19
2024-05-09T14:34:46.161Z,95580.53
2024-05-09T14:35:58.476Z,95574.28
2024-05-09T14:37:10.753Z,95576.84
2024-05-09T14:38:24.284Z,95579.16
2024-05-09T14:39:36.442Z,95572.34
2024-05-09T14:40:48.780Z,95577.53
2024-05-09T14:42:01.094Z,95573.53
2024-05-09T14:43:15.273Z,95578.06
2024-05-09T14:44:28.015Z,95579.44
2024-05-09T14:45:40.600Z,95574.78
2024-05-09T14:46:52.996Z,95572.50
2024-05-09T14:48:06.018Z,95568.97